sensor_id;sensor_type;location;lat;lon;timestamp;pressure;altitude;pressure_sealevel;temperature;humidity
53011;BME280;42803;55.762;38.084;2023-04-03T00:01:38;99302.50;;;6.38;100.00
53011;BME280;42803;55.762;38.084;2023-04-03T00:04:09;99310.41;;;6.39;100.00
53011;BME280;42803;55.762;38.084;2023-04-03T00:06:38;99309.41;;;6.47;100.00
53011;BME280;42803;55.762;38.084;2023-04-03T00:09:09;99311.31;;;6.40;100.00
53011;BME280;42803;55.762;38.084;2023-04-03T00:11:37;99309.31;;;6.27;100.00
53011;BME280;42803;55.762;38.084;2023-04-03T00:14:06;99309.41;;;6.18;100.00
53011;BME280;42803;55.762;38.084;2023-04-03T00:16:35;99311.53;;;6.14;100.00
53011;BME280;42803;55.762;38.084;2023-04-03T00:19:05;99314.00;;;6.12;100.00
53011;BME280;42803;55.762;38.084;2023-04-03T00:21:34;99310.34;;;6.10;100.00
53011;BME280;42803;55.762;38.084;2023-04-03T00:24:04;99321.22;;;6.06;100.00
53011;BME280;42803;55.762;38.084;2023-04-03T00:26:35;99325.06;;;6.01;100.00
53011;BME280;42803;55.762;38.084;2023-04-03T00:29:03;99322.06;;;5.96;100.00
53011;BME280;42803;55.762;38.084;2023-04-03T00:31:33;99321.78;;;5.93;100.00
53011;BME280;42803;55.762;38.084;2023-04-03T00:34:02;99315.97;;;5.87;100.00
53011;BME280;42803;55.762;38.084;2023-04-03T00:36:31;99321.53;;;5.81;100.00
53011;BME280;42803;55.762;38.084;2023-04-03T00:39:00;99315.94;;;5.77;100.00
53011;BME280;42803;55.762;38.084;2023-04-03T00:41:29;99319.25;;;5.76;100.00
53011;BME280;42803;55.762;38.084;2023-04-03T00:44:00;99322.34;;;5.72;100.00
53011;BME280;42803;55.762;38.084;2023-04-03T00:46:29;99320.66;;;5.72;100.00
53011;BME280;42803;55.762;38.084;2023-04-03T00:48:58;99313.66;;;5.71;100.00
53011;BME280;42803;55.762;38.084;2023-04-03T00:51:28;99310.94;;;5.70;100.00
53011;BME280;42803;55.762;38.084;2023-04-03T00:53:59;99304.69;;;5.68;100.00
53011;BME280;42803;55.762;38.084;2023-04-03T00:56:30;99307.00;;;5.65;100.00
53011;BME280;42803;55.762;38.084;2023-04-03T00:59:04;99310.84;;;5.59;100.00
53011;BME280;42803;55.762;38.084;2023-04-03T01:01:35;99312.25;;;5.56;100.00
53011;BME280;42803;55.762;38.084;2023-04-03T01:04:05;99313.78;;;5.54;100.00
53011;BME280;42803;55.762;38.084;2023-04-03T01:06:36;99311.03;;;5.52;100.00
53011;BME280;42803;55.762;38.084;2023-04-03T01:09:07;99311.41;;;5.47;100.00
53011;BME280;42803;55.762;38.084;2023-04-03T01:11:37;99299.84;;;5.43;100.00
53011;BME280;42803;55.762;38.084;2023-04-03T01:14:07;99307.44;;;5.42;100.00
53011;BME280;42803;55.762;38.084;2023-04-03T01:16:36;99305.97;;;5.35;100.00
53011;BME280;42803;55.762;38.084;2023-04-03T01:19:10;99313.94;;;5.28;100.00
53011;BME280;42803;55.762;38.084;2023-04-03T01:22:00;99301.19;;;5.21;100.00
53011;BME280;42803;55.762;38.084;2023-04-03T01:24:33;99309.59;;;5.09;100.00
53011;BME280;42803;55.762;38.084;2023-04-03T01:27:07;99310.38;;;5.00;100.00
53011;BME280;42803;55.762;38.084;2023-04-03T01:29:40;99308.03;;;4.84;100.00
53011;BME280;42803;55.762;38.084;2023-04-03T01:32:12;99314.47;;;4.70;100.00
53011;BME280;42803;55.762;38.084;2023-04-03T01:34:42;99315.41;;;4.62;100.00
53011;BME280;42803;55.762;38.084;2023-04-03T01:37:11;99315.88;;;4.49;100.00
53011;BME280;42803;55.762;38.084;2023-04-03T01:39:40;99321.66;;;4.38;100.00
53011;BME280;42803;55.762;38.084;2023-04-03T01:42:09;99324.88;;;4.27;100.00
53011;BME280;42803;55.762;38.084;2023-04-03T01:44:43;99322.59;;;4.21;100.00
53011;BME280;42803;55.762;38.084;2023-04-03T01:47:15;99324.56;;;4.15;100.00
53011;BME280;42803;55.762;38.084;2023-04-03T01:49:44;99322.91;;;4.15;100.00
53011;BME280;42803;55.762;38.084;2023-04-03T01:52:14;99330.94;;;4.19;100.00
53011;BME280;42803;55.762;38.084;2023-04-03T01:54:43;99321.38;;;4.18;100.00
53011;BME280;42803;55.762;38.084;2023-04-03T01:57:12;99315.91;;;4.14;100.00
53011;BME280;42803;55.762;38.084;2023-04-03T01:59:43;99320.94;;;4.13;100.00
53011;BME280;42803;55.762;38.084;2023-04-03T02:02:12;99320.50;;;4.08;100.00
53011;BME280;42803;55.762;38.084;2023-04-03T02:04:43;99329.75;;;4.06;100.00
53011;BME280;42803;55.762;38.084;2023-04-03T02:07:12;99323.81;;;4.07;100.00
53011;BME280;42803;55.762;38.084;2023-04-03T02:09:41;99320.50;;;4.08;100.00
53011;BME280;42803;55.762;38.084;2023-04-03T02:12:10;99320.50;;;4.08;100.00
53011;BME280;42803;55.762;38.084;2023-04-03T02:14:39;99317.59;;;4.05;100.00
53011;BME280;42803;55.762;38.084;2023-04-03T02:17:11;99322.78;;;4.05;100.00
53011;BME280;42803;55.762;38.084;2023-04-03T02:19:40;99324.88;;;4.09;100.00
53011;BME280;42803;55.762;38.084;2023-04-03T02:22:11;99324.28;;;4.03;100.00
53011;BME280;42803;55.762;38.084;2023-04-03T02:24:40;99328.84;;;3.97;100.00
53011;BME280;42803;55.762;38.084;2023-04-03T02:27:09;99328.84;;;3.97;100.00
53011;BME280;42803;55.762;38.084;2023-04-03T02:29:38;99329.13;;;3.91;100.00
53011;BME280;42803;55.762;38.084;2023-04-03T02:32:07;99321.53;;;3.84;100.00
53011;BME280;42803;55.762;38.084;2023-04-03T02:34:36;99325.00;;;3.76;100.00
53011;BME280;42803;55.762;38.084;2023-04-03T02:37:06;99332.75;;;3.67;100.00
53011;BME280;42803;55.762;38.084;2023-04-03T02:39:38;99329.22;;;3.58;100.00
53011;BME280;42803;55.762;38.084;2023-04-03T02:42:07;99322.38;;;3.50;100.00
53011;BME280;42803;55.762;38.084;2023-04-03T02:44:36;99333.47;;;3.49;100.00
53011;BME280;42803;55.762;38.084;2023-04-03T02:47:06;99335.59;;;3.45;100.00
53011;BME280;42803;55.762;38.084;2023-04-03T02:49:35;99339.34;;;3.39;100.00
53011;BME280;42803;55.762;38.084;2023-04-03T02:52:05;99342.22;;;3.34;100.00
53011;BME280;42803;55.762;38.084;2023-04-03T02:54:34;99343.88;;;3.25;100.00
53011;BME280;42803;55.762;38.084;2023-04-03T02:57:08;99343.84;;;3.16;100.00
53011;BME280;42803;55.762;38.084;2023-04-03T02:59:37;99343.81;;;3.07;100.00
53011;BME280;42803;55.762;38.084;2023-04-03T03:02:10;99341.66;;;3.03;100.00
53011;BME280;42803;55.762;38.084;2023-04-03T03:04:39;99348.63;;;3.04;100.00
53011;BME280;42803;55.762;38.084;2023-04-03T03:07:08;99346.53;;;3.09;100.00
53011;BME280;42803;55.762;38.084;2023-04-03T03:09:37;99353.25;;;3.15;100.00
53011;BME280;42803;55.762;38.084;2023-04-03T03:12:08;99351.31;;;3.22;100.00
53011;BME280;42803;55.762;38.084;2023-04-03T03:14:37;99351.91;;;3.28;100.00
53011;BME280;42803;55.762;38.084;2023-04-03T03:17:06;99361.06;;;3.33;100.00
53011;BME280;42803;55.762;38.084;2023-04-03T03:19:35;99348.47;;;3.36;100.00
53011;BME280;42803;55.762;38.084;2023-04-03T03:22:04;99355.31;;;3.44;100.00
53011;BME280;42803;55.762;38.084;2023-04-03T03:24:33;99354.13;;;3.49;100.00
53011;BME280;42803;55.762;38.084;2023-04-03T03:27:02;99358.25;;;3.56;100.00
53011;BME280;42803;55.762;38.084;2023-04-03T03:29:33;99363.09;;;3.61;100.00
53011;BME280;42803;55.762;38.084;2023-04-03T03:32:04;99366.00;;;3.64;100.00
53011;BME280;42803;55.762;38.084;2023-04-03T03:34:34;99372.25;;;3.66;100.00
53011;BME280;42803;55.762;38.084;2023-04-03T03:37:03;99371.63;;;3.69;100.00
53011;BME280;42803;55.762;38.084;2023-04-03T03:39:32;99369.22;;;3.71;100.00
53011;BME280;42803;55.762;38.084;2023-04-03T03:42:02;99368.91;;;3.76;100.00
53011;BME280;42803;55.762;38.084;2023-04-03T03:44:32;99366.31;;;3.76;100.00
53011;BME280;42803;55.762;38.084;2023-04-03T03:47:01;99365.28;;;3.83;100.00
53011;BME280;42803;55.762;38.084;2023-04-03T03:49:31;99368.16;;;3.86;100.00
53011;BME280;42803;55.762;38.084;2023-04-03T03:52:01;99363.16;;;3.87;100.00
53011;BME280;42803;55.762;38.084;2023-04-03T03:54:30;99356.16;;;3.86;100.00
53011;BME280;42803;55.762;38.084;2023-04-03T03:56:59;99359.97;;;3.90;100.00
53011;BME280;42803;55.762;38.084;2023-04-03T03:59:30;99351.31;;;3.98;100.00
53011;BME280;42803;55.762;38.084;2023-04-03T04:02:01;99358.47;;;4.09;100.00
53011;BME280;42803;55.762;38.084;2023-04-03T04:04:30;99354.97;;;4.18;100.00
53011;BME280;42803;55.762;38.084;2023-04-03T04:07:00;99357.25;;;4.32;100.00
53011;BME280;42803;55.762;38.084;2023-04-03T04:09:30;99354.31;;;4.46;100.00
53011;BME280;42803;55.762;38.084;2023-04-03T04:11:59;99355.09;;;4.62;100.00
53011;BME280;42803;55.762;38.084;2023-04-03T04:14:31;99356.56;;;4.78;100.00
53011;BME280;42803;55.762;38.084;2023-04-03T04:17:02;99354.41;;;4.91;100.00
53011;BME280;42803;55.762;38.084;2023-04-03T04:19:31;99354.19;;;5.07;100.00
53011;BME280;42803;55.762;38.084;2023-04-03T04:22:01;99360.03;;;5.32;100.00
53011;BME280;42803;55.762;38.084;2023-04-03T04:24:31;99351.56;;;5.52;100.00
53011;BME280;42803;55.762;38.084;2023-04-03T04:27:02;99349.00;;;5.71;100.00
53011;BME280;42803;55.762;38.084;2023-04-03T04:29:32;99358.03;;;5.93;100.00
53011;BME280;42803;55.762;38.084;2023-04-03T04:32:05;99362.38;;;6.22;100.00
53011;BME280;42803;55.762;38.084;2023-04-03T04:34:35;99354.34;;;6.56;100.00
53011;BME280;42803;55.762;38.084;2023-04-03T04:37:04;99343.81;;;6.84;100.00
53011;BME280;42803;55.762;38.084;2023-04-03T04:39:33;99351.66;;;7.04;100.00
53011;BME280;42803;55.762;38.084;2023-04-03T04:42:04;99343.38;;;7.08;100.00
53011;BME280;42803;55.762;38.084;2023-04-03T04:44:35;99351.44;;;7.12;100.00
53011;BME280;42803;55.762;38.084;2023-04-03T04:47:05;99349.00;;;7.23;100.00
53011;BME280;42803;55.762;38.084;2023-04-03T04:49:34;99343.69;;;7.32;100.00
53011;BME280;42803;55.762;38.084;2023-04-03T04:52:04;99345.44;;;7.52;100.00
53011;BME280;42803;55.762;38.084;2023-04-03T04:54:34;99346.06;;;7.49;99.40
53011;BME280;42803;55.762;38.084;2023-04-03T04:57:03;99348.78;;;7.51;98.45
53011;BME280;42803;55.762;38.084;2023-04-03T04:59:33;99344.47;;;7.31;98.47
53011;BME280;42803;55.762;38.084;2023-04-03T05:02:02;99345.78;;;7.26;99.24
53011;BME280;42803;55.762;38.084;2023-04-03T05:04:33;99341.59;;;7.18;99.46
53011;BME280;42803;55.762;38.084;2023-04-03T05:07:08;99349.78;;;7.22;100.00
53011;BME280;42803;55.762;38.084;2023-04-03T05:09:38;99354.47;;;7.26;99.88
53011;BME280;42803;55.762;38.084;2023-04-03T05:12:14;99346.84;;;7.38;99.94
53011;BME280;42803;55.762;38.084;2023-04-03T05:14:49;99350.72;;;7.43;99.48
53011;BME280;42803;55.762;38.084;2023-04-03T05:17:18;99347.63;;;7.47;99.78
53011;BME280;42803;55.762;38.084;2023-04-03T05:19:52;99352.03;;;7.38;98.86
53011;BME280;42803;55.762;38.084;2023-04-03T05:22:23;99358.03;;;7.57;99.62
53011;BME280;42803;55.762;38.084;2023-04-03T05:24:55;99353.75;;;7.68;98.02
53011;BME280;42803;55.762;38.084;2023-04-03T05:27:25;99355.56;;;7.69;97.23
53011;BME280;42803;55.762;38.084;2023-04-03T05:29:57;99350.09;;;7.66;97.05
53011;BME280;42803;55.762;38.084;2023-04-03T05:32:29;99355.16;;;7.54;96.98
53011;BME280;42803;55.762;38.084;2023-04-03T05:35:17;99366.06;;;7.50;98.34
53011;BME280;42803;55.762;38.084;2023-04-03T05:37:50;99365.34;;;7.72;97.85
53011;BME280;42803;55.762;38.084;2023-04-03T05:40:20;99363.13;;;7.87;96.71
53011;BME280;42803;55.762;38.084;2023-04-03T05:42:52;99367.94;;;8.02;95.84
53011;BME280;42803;55.762;38.084;2023-04-03T05:45:24;99369.88;;;8.15;95.47
53011;BME280;42803;55.762;38.084;2023-04-03T05:47:53;99367.69;;;8.40;94.74
53011;BME280;42803;55.762;38.084;2023-04-03T05:50:24;99362.94;;;8.67;93.46
53011;BME280;42803;55.762;38.084;2023-04-03T05:52:56;99360.22;;;8.97;91.19
53011;BME280;42803;55.762;38.084;2023-04-03T05:55:28;99355.28;;;9.00;89.86
53011;BME280;42803;55.762;38.084;2023-04-03T05:57:58;99359.63;;;9.12;88.92
53011;BME280;42803;55.762;38.084;2023-04-03T06:00:27;99351.47;;;9.29;88.22
53011;BME280;42803;55.762;38.084;2023-04-03T06:03:01;99356.84;;;9.42;86.69
53011;BME280;42803;55.762;38.084;2023-04-03T06:05:32;99358.47;;;9.74;86.05
53011;BME280;42803;55.762;38.084;2023-04-03T06:08:03;99359.09;;;9.93;84.72
53011;BME280;42803;55.762;38.084;2023-04-03T06:10:33;99357.84;;;9.88;83.39
53011;BME280;42803;55.762;38.084;2023-04-03T06:13:04;99357.66;;;9.97;83.39
53011;BME280;42803;55.762;38.084;2023-04-03T06:15:34;99352.16;;;10.16;82.14
53011;BME280;42803;55.762;38.084;2023-04-03T06:18:03;99348.06;;;10.19;82.20
53011;BME280;42803;55.762;38.084;2023-04-03T06:20:34;99355.28;;;10.57;81.06
53011;BME280;42803;55.762;38.084;2023-04-03T06:23:04;99352.88;;;10.72;79.39
53011;BME280;42803;55.762;38.084;2023-04-03T06:25:38;99355.41;;;10.47;79.00
53011;BME280;42803;55.762;38.084;2023-04-03T06:28:12;99354.50;;;10.46;79.44
53011;BME280;42803;55.762;38.084;2023-04-03T06:30:42;99358.34;;;10.63;78.64
53011;BME280;42803;55.762;38.084;2023-04-03T06:33:12;99355.41;;;10.47;78.55
53011;BME280;42803;55.762;38.084;2023-04-03T06:35:43;99356.63;;;10.52;79.26
53011;BME280;42803;55.762;38.084;2023-04-03T06:38:12;99357.19;;;10.60;79.07
53011;BME280;42803;55.762;38.084;2023-04-03T06:40:44;99369.13;;;10.68;79.40
53011;BME280;42803;55.762;38.084;2023-04-03T06:43:14;99367.22;;;10.65;79.14
53011;BME280;42803;55.762;38.084;2023-04-03T06:45:43;99365.16;;;10.61;79.35
53011;BME280;42803;55.762;38.084;2023-04-03T06:48:12;99372.53;;;10.67;78.61
53011;BME280;42803;55.762;38.084;2023-04-03T06:50:43;99363.53;;;10.98;77.66
53011;BME280;42803;55.762;38.084;2023-04-03T06:53:13;99377.59;;;11.24;76.58
53011;BME280;42803;55.762;38.084;2023-04-03T06:55:42;99367.53;;;11.54;75.91
53011;BME280;42803;55.762;38.084;2023-04-03T06:58:11;99370.03;;;11.40;74.70
53011;BME280;42803;55.762;38.084;2023-04-03T07:00:43;99369.81;;;11.86;74.72
53011;BME280;42803;55.762;38.084;2023-04-03T07:03:13;99374.47;;;11.78;73.89
53011;BME280;42803;55.762;38.084;2023-04-03T07:05:43;99379.38;;;11.85;73.75
53011;BME280;42803;55.762;38.084;2023-04-03T07:08:13;99375.41;;;12.04;73.08
53011;BME280;42803;55.762;38.084;2023-04-03T07:10:43;99369.66;;;12.48;72.20
53011;BME280;42803;55.762;38.084;2023-04-03T07:13:12;99376.16;;;12.53;71.00
53011;BME280;42803;55.762;38.084;2023-04-03T07:15:42;99380.50;;;12.79;71.24
53011;BME280;42803;55.762;38.084;2023-04-03T07:18:12;99384.25;;;12.31;70.82
53011;BME280;42803;55.762;38.084;2023-04-03T07:20:42;99376.06;;;12.64;71.33
53011;BME280;42803;55.762;38.084;2023-04-03T07:23:12;99379.63;;;12.40;71.75
53011;BME280;42803;55.762;38.084;2023-04-03T07:25:43;99376.78;;;12.88;70.74
53011;BME280;42803;55.762;38.084;2023-04-03T07:28:13;99379.19;;;12.85;70.16
53011;BME280;42803;55.762;38.084;2023-04-03T07:30:43;99378.00;;;12.67;69.65
53011;BME280;42803;55.762;38.084;2023-04-03T07:33:16;99385.16;;;12.31;70.81
53011;BME280;42803;55.762;38.084;2023-04-03T07:35:48;99385.81;;;12.54;71.20
53011;BME280;42803;55.762;38.084;2023-04-03T07:38:18;99394.16;;;12.48;70.18
53011;BME280;42803;55.762;38.084;2023-04-03T07:40:48;99381.59;;;12.56;70.69
53011;BME280;42803;55.762;38.084;2023-04-03T07:43:22;99390.09;;;12.40;70.83
53011;BME280;42803;55.762;38.084;2023-04-03T07:45:52;99389.72;;;12.47;70.83
53011;BME280;42803;55.762;38.084;2023-04-03T07:48:23;99376.19;;;12.79;70.00
53011;BME280;42803;55.762;38.084;2023-04-03T07:50:53;99383.63;;;13.13;68.92
53011;BME280;42803;55.762;38.084;2023-04-03T07:53:24;99379.22;;;13.25;69.04
53011;BME280;42803;55.762;38.084;2023-04-03T07:55:53;99388.00;;;13.54;67.52
53011;BME280;42803;55.762;38.084;2023-04-03T07:58:24;99385.81;;;13.47;67.03
53011;BME280;42803;55.762;38.084;2023-04-03T08:00:55;99383.31;;;13.76;67.17
53011;BME280;42803;55.762;38.084;2023-04-03T08:03:25;99384.69;;;13.84;66.00
53011;BME280;42803;55.762;38.084;2023-04-03T08:06:02;99391.16;;;13.89;65.59
53011;BME280;42803;55.762;38.084;2023-04-03T08:08:33;99387.31;;;13.84;66.17
53011;BME280;42803;55.762;38.084;2023-04-03T08:11:03;99391.75;;;14.13;65.31
53011;BME280;42803;55.762;38.084;2023-04-03T08:13:34;99388.41;;;14.16;65.22
53011;BME280;42803;55.762;38.084;2023-04-03T08:16:08;99386.97;;;14.21;64.83
53011;BME280;42803;55.762;38.084;2023-04-03T08:18:37;99385.00;;;14.04;65.40
53011;BME280;42803;55.762;38.084;2023-04-03T08:21:11;99392.91;;;14.19;65.54
53011;BME280;42803;55.762;38.084;2023-04-03T08:23:41;99394.94;;;14.37;65.07
53011;BME280;42803;55.762;38.084;2023-04-03T08:26:12;99385.09;;;14.48;64.32
53011;BME280;42803;55.762;38.084;2023-04-03T08:28:42;99388.28;;;14.57;63.98
53011;BME280;42803;55.762;38.084;2023-04-03T08:31:13;99391.72;;;14.56;63.67
53011;BME280;42803;55.762;38.084;2023-04-03T08:33:43;99388.47;;;14.60;63.34
53011;BME280;42803;55.762;38.084;2023-04-03T08:36:19;99395.53;;;14.76;64.33
53011;BME280;42803;55.762;38.084;2023-04-03T08:38:49;99396.09;;;14.71;63.73
53011;BME280;42803;55.762;38.084;2023-04-03T08:41:26;99393.34;;;14.84;63.20
53011;BME280;42803;55.762;38.084;2023-04-03T08:44:13;99393.38;;;14.69;62.87
53011;BME280;42803;55.762;38.084;2023-04-03T08:46:56;99403.31;;;14.75;63.29
53011;BME280;42803;55.762;38.084;2023-04-03T08:49:31;99409.78;;;14.37;63.33
53011;BME280;42803;55.762;38.084;2023-04-03T08:52:07;99405.25;;;14.20;64.40
53011;BME280;42803;55.762;38.084;2023-04-03T08:54:49;99410.69;;;14.37;64.23
53011;BME280;42803;55.762;38.084;2023-04-03T08:57:28;99408.03;;;14.51;64.00
53011;BME280;42803;55.762;38.084;2023-04-03T09:00:04;99413.41;;;14.24;64.50
53011;BME280;42803;55.762;38.084;2023-04-03T09:02:41;99418.47;;;14.21;64.69
53011;BME280;42803;55.762;38.084;2023-04-03T09:05:16;99422.13;;;14.10;64.81
53011;BME280;42803;55.762;38.084;2023-04-03T09:07:52;99417.78;;;14.38;64.21
53011;BME280;42803;55.762;38.084;2023-04-03T09:10:28;99421.97;;;14.79;63.17
53011;BME280;42803;55.762;38.084;2023-04-03T09:13:03;99422.53;;;14.89;61.56
53011;BME280;42803;55.762;38.084;2023-04-03T09:15:34;99422.56;;;14.46;61.48
53011;BME280;42803;55.762;38.084;2023-04-03T09:18:20;99430.69;;;14.21;62.37
53011;BME280;42803;55.762;38.084;2023-04-03T09:21:04;99440.59;;;14.11;62.02
53011;BME280;42803;55.762;38.084;2023-04-03T09:23:42;99434.69;;;14.29;61.51
53011;BME280;42803;55.762;38.084;2023-04-03T09:26:15;99437.28;;;14.57;61.60
53011;BME280;42803;55.762;38.084;2023-04-03T09:28:47;99428.97;;;14.79;61.05
53011;BME280;42803;55.762;38.084;2023-04-03T09:31:23;99442.09;;;15.23;58.99
53011;BME280;42803;55.762;38.084;2023-04-03T09:33:55;99438.63;;;15.24;58.65
53011;BME280;42803;55.762;38.084;2023-04-03T09:36:39;99437.31;;;15.47;57.48
53011;BME280;42803;55.762;38.084;2023-04-03T09:39:13;99441.44;;;15.58;57.77
53011;BME280;42803;55.762;38.084;2023-04-03T09:41:56;99439.28;;;15.66;57.90
53011;BME280;42803;55.762;38.084;2023-04-03T09:44:26;99435.59;;;15.79;57.48
53011;BME280;42803;55.762;38.084;2023-04-03T09:46:56;99434.50;;;15.75;57.67
53011;BME280;42803;55.762;38.084;2023-04-03T09:49:26;99436.66;;;15.82;57.53
53011;BME280;42803;55.762;38.084;2023-04-03T09:51:55;99446.34;;;15.52;57.92
53011;BME280;42803;55.762;38.084;2023-04-03T09:54:32;99439.72;;;15.90;57.65
53011;BME280;42803;55.762;38.084;2023-04-03T09:57:06;99447.25;;;15.53;57.17
53011;BME280;42803;55.762;38.084;2023-04-03T09:59:40;99444.47;;;15.19;57.66
53011;BME280;42803;55.762;38.084;2023-04-03T10:02:23;99450.72;;;15.52;58.47
53011;BME280;42803;55.762;38.084;2023-04-03T10:04:57;99442.03;;;15.84;57.60
53011;BME280;42803;55.762;38.084;2023-04-03T10:08:06;99438.56;;;15.23;57.47
53011;BME280;42803;55.762;38.084;2023-04-03T10:10:39;99441.09;;;15.67;57.70
53011;BME280;42803;55.762;38.084;2023-04-03T10:13:11;99442.28;;;16.21;56.83
53011;BME280;42803;55.762;38.084;2023-04-03T10:15:51;99447.06;;;16.45;55.23
53011;BME280;42803;55.762;38.084;2023-04-03T10:18:32;99436.84;;;16.51;54.34
53011;BME280;42803;55.762;38.084;2023-04-03T10:21:05;99441.47;;;16.39;54.91
53011;BME280;42803;55.762;38.084;2023-04-03T10:23:51;99439.06;;;16.76;53.93
53011;BME280;42803;55.762;38.084;2023-04-03T10:26:31;99440.22;;;16.32;54.08
53011;BME280;42803;55.762;38.084;2023-04-03T10:29:09;99438.19;;;16.26;54.62
53011;BME280;42803;55.762;38.084;2023-04-03T10:31:46;99448.50;;;15.74;55.10
53011;BME280;42803;55.762;38.084;2023-04-03T10:34:23;99449.34;;;15.73;55.96
53011;BME280;42803;55.762;38.084;2023-04-03T10:36:57;99441.44;;;15.90;55.30
53011;BME280;42803;55.762;38.084;2023-04-03T10:39:33;99445.81;;;16.05;54.98
53011;BME280;42803;55.762;38.084;2023-04-03T10:42:13;99440.16;;;15.98;54.45
53011;BME280;42803;55.762;38.084;2023-04-03T10:44:54;99448.84;;;15.80;55.45
53011;BME280;42803;55.762;38.084;2023-04-03T10:47:33;99440.97;;;15.97;55.56
53011;BME280;42803;55.762;38.084;2023-04-03T10:50:21;99439.25;;;15.97;54.97
53011;BME280;42803;55.762;38.084;2023-04-03T10:52:56;99440.50;;;16.04;54.32
53011;BME280;42803;55.762;38.084;2023-04-03T10:55:34;99449.03;;;16.16;54.65
53011;BME280;42803;55.762;38.084;2023-04-03T10:58:06;99439.50;;;16.35;54.46
53011;BME280;42803;55.762;38.084;2023-04-03T11:00:43;99439.34;;;16.31;55.16
53011;BME280;42803;55.762;38.084;2023-04-03T11:03:17;99444.63;;;16.15;54.90
53011;BME280;42803;55.762;38.084;2023-04-03T11:05:55;99433.25;;;16.49;53.81
53011;BME280;42803;55.762;38.084;2023-04-03T11:08:30;99431.63;;;16.69;53.49
53011;BME280;42803;55.762;38.084;2023-04-03T11:11:05;99432.44;;;16.33;53.69
53011;BME280;42803;55.762;38.084;2023-04-03T11:13:41;99430.59;;;16.49;54.15
53011;BME280;42803;55.762;38.084;2023-04-03T11:16:17;99430.34;;;16.28;53.74
53011;BME280;42803;55.762;38.084;2023-04-03T11:18:51;99423.53;;;16.31;54.48
53011;BME280;42803;55.762;38.084;2023-04-03T11:21:26;99421.13;;;16.52;54.26
53011;BME280;42803;55.762;38.084;2023-04-03T11:23:59;99418.94;;;16.78;53.86
53011;BME280;42803;55.762;38.084;2023-04-03T11:26:36;99420.38;;;16.55;53.61
53011;BME280;42803;55.762;38.084;2023-04-03T11:29:12;99414.59;;;16.62;53.11
53011;BME280;42803;55.762;38.084;2023-04-03T11:32:09;99424.34;;;15.81;53.63
53011;BME280;42803;55.762;38.084;2023-04-03T11:34:43;99417.09;;;16.10;53.43
53011;BME280;42803;55.762;38.084;2023-04-03T11:37:20;99419.75;;;16.26;52.65
53011;BME280;42803;55.762;38.084;2023-04-03T11:40:02;99417.44;;;16.16;53.92
53011;BME280;42803;55.762;38.084;2023-04-03T11:42:36;99414.97;;;16.36;53.84
53011;BME280;42803;55.762;38.084;2023-04-03T11:45:46;99418.94;;;16.11;54.39
53011;BME280;42803;55.762;38.084;2023-04-03T11:48:49;99420.22;;;15.87;54.29
53011;BME280;42803;55.762;38.084;2023-04-03T11:57:44;99424.75;;;15.73;55.97
53011;BME280;42803;55.762;38.084;2023-04-03T12:00:58;99425.16;;;15.49;56.26
53011;BME280;42803;55.762;38.084;2023-04-03T12:07:01;99420.06;;;14.92;57.01
53011;BME280;42803;55.762;38.084;2023-04-03T12:09:37;99431.41;;;14.61;58.09
53011;BME280;42803;55.762;38.084;2023-04-03T12:12:55;99428.88;;;14.34;59.24
53011;BME280;42803;55.762;38.084;2023-04-03T12:15:47;99431.63;;;14.08;59.53
53011;BME280;42803;55.762;38.084;2023-04-03T12:19:02;99435.28;;;13.82;60.45
53011;BME280;42803;55.762;38.084;2023-04-03T12:22:15;99434.59;;;13.58;60.95
53011;BME280;42803;55.762;38.084;2023-04-03T12:24:49;99428.03;;;13.64;62.03
53011;BME280;42803;55.762;38.084;2023-04-03T12:27:25;99425.69;;;13.69;61.63
53011;BME280;42803;55.762;38.084;2023-04-03T12:30:01;99429.75;;;13.64;61.57
53011;BME280;42803;55.762;38.084;2023-04-03T12:32:46;99436.38;;;13.72;62.17
53011;BME280;42803;55.762;38.084;2023-04-03T12:35:34;99438.81;;;13.69;62.10
53011;BME280;42803;55.762;38.084;2023-04-03T12:41:29;99435.81;;;13.63;62.76
53011;BME280;42803;55.762;38.084;2023-04-03T12:44:11;99438.28;;;13.33;62.70
53011;BME280;42803;55.762;38.084;2023-04-03T12:46:47;99434.25;;;13.25;63.06
53011;BME280;42803;55.762;38.084;2023-04-03T12:49:31;99444.28;;;13.19;63.63
53011;BME280;42803;55.762;38.084;2023-04-03T12:52:06;99434.25;;;13.25;64.12
53011;BME280;42803;55.762;38.084;2023-04-03T12:54:46;99445.41;;;13.09;65.17
53011;BME280;42803;55.762;38.084;2023-04-03T12:57:18;99446.91;;;12.92;66.19
53011;BME280;42803;55.762;38.084;2023-04-03T12:59:48;99449.22;;;12.88;67.48
53011;BME280;42803;55.762;38.084;2023-04-03T13:02:22;99446.50;;;12.86;68.60
53011;BME280;42803;55.762;38.084;2023-04-03T13:04:53;99443.50;;;12.93;68.80
53011;BME280;42803;55.762;38.084;2023-04-03T13:07:29;99452.44;;;12.84;69.42
53011;BME280;42803;55.762;38.084;2023-04-03T13:10:09;99444.66;;;12.72;69.98
53011;BME280;42803;55.762;38.084;2023-04-03T13:12:47;99447.09;;;12.96;70.65
53011;BME280;42803;55.762;38.084;2023-04-03T13:15:19;99438.94;;;12.91;70.02
53011;BME280;42803;55.762;38.084;2023-04-03T13:17:50;99446.31;;;13.10;70.09
53011;BME280;42803;55.762;38.084;2023-04-03T13:20:23;99448.34;;;13.27;69.33
53011;BME280;42803;55.762;38.084;2023-04-03T13:22:58;99448.94;;;13.23;68.69
53011;BME280;42803;55.762;38.084;2023-04-03T13:25:31;99442.50;;;13.31;68.83
53011;BME280;42803;55.762;38.084;2023-04-03T13:28:04;99442.94;;;13.24;68.95
53011;BME280;42803;55.762;38.084;2023-04-03T13:31:01;99444.31;;;13.06;68.37
53011;BME280;42803;55.762;38.084;2023-04-03T13:33:32;99455.91;;;13.09;68.97
53011;BME280;42803;55.762;38.084;2023-04-03T13:36:07;99448.72;;;12.93;68.41